createdAt,value
2018-12-15T08:35:27.455Z,3.20
2018-12-15T08:37:54.954Z,3.20
2018-12-15T08:40:22.782Z,3.30
2018-12-15T08:42:50.742Z,3.40
2018-12-15T08:45:18.611Z,3.50
2018-12-15T08:47:46.493Z,3.50
2018-12-15T08:53:35.465Z,3.40
2018-12-15T08:56:04.458Z,3.30
2018-12-15T08:58:32.874Z,3.40
2018-12-15T09:01:00.434Z,3.30
2018-12-15T09:03:32.339Z,3.30
2018-12-15T09:06:00.059Z,3.30
2018-12-15T09:08:28.058Z,3.20
2018-12-15T09:10:55.878Z,3.20
2018-12-15T09:13:23.991Z,3.20
2018-12-15T09:15:51.714Z,3.20
2018-12-15T09:18:19.600Z,3.20
2018-12-15T09:20:47.245Z,3.20
2018-12-15T09:23:14.867Z,3.20
2018-12-15T09:25:42.499Z,3.20
2018-12-15T09:28:10.081Z,3.20
2018-12-15T09:30:37.654Z,3.20
2018-12-15T09:33:05.257Z,3.20
2018-12-15T09:35:32.930Z,3.20
2018-12-15T09:38:01.420Z,3.20
2018-12-15T09:40:29.046Z,3.20
2018-12-15T09:42:57.210Z,3.30
2018-12-15T09:45:25.026Z,3.30
2018-12-15T09:47:53.070Z,3.30
2018-12-15T09:50:20.753Z,3.30
2018-12-15T09:52:48.674Z,3.30
2018-12-15T09:55:16.344Z,3.30
2018-12-15T09:57:44.188Z,3.20
2018-12-15T10:00:12.377Z,3.30
2018-12-15T10:02:40.013Z,3.30
2018-12-15T10:05:07.553Z,3.20
2018-12-15T10:07:35.086Z,3.30
2018-12-15T10:10:02.666Z,3.30
2018-12-15T10:12:30.242Z,3.30
2018-12-15T10:14:57.814Z,3.30
2018-12-15T10:17:25.441Z,3.30
2018-12-15T10:19:53.296Z,3.30
2018-12-15T10:22:21.243Z,3.30
2018-12-15T10:24:48.900Z,3.40
2018-12-15T10:27:16.842Z,3.50
2018-12-15T10:29:50.102Z,3.50
2018-12-15T10:32:23.297Z,3.50
2018-12-15T10:34:51.170Z,3.60
2018-12-15T10:37:18.944Z,3.50
2018-12-15T10:39:46.538Z,3.60
2018-12-15T10:42:14.135Z,3.60
2018-12-15T10:44:41.726Z,3.60
2018-12-15T10:47:09.315Z,3.60
2018-12-15T10:49:36.858Z,3.50
2018-12-15T10:52:04.598Z,3.50
2018-12-15T10:54:32.330Z,3.50
2018-12-15T10:57:00.009Z,3.50
2018-12-15T10:59:27.861Z,3.60
2018-12-15T11:01:55.549Z,3.60
2018-12-15T11:04:23.482Z,3.70
2018-12-15T11:06:51.334Z,3.70
2018-12-15T11:09:19.206Z,3.70
2018-12-15T11:11:47.052Z,3.80
2018-12-15T11:14:15.130Z,3.90
2018-12-15T11:16:42.871Z,3.90
2018-12-15T11:19:10.728Z,4.00
2018-12-15T11:21:38.422Z,4.00
2018-12-15T11:24:06.051Z,3.90
2018-12-15T11:26:33.671Z,4.00
2018-12-15T11:29:01.281Z,4.00
2018-12-15T11:31:28.902Z,4.00
2018-12-15T11:33:56.491Z,4.00
2018-12-15T11:36:24.223Z,4.00
2018-12-15T11:38:51.924Z,4.00
2018-12-15T11:41:19.750Z,4.10
2018-12-15T11:43:47.451Z,4.20
2018-12-15T11:46:15.354Z,4.20
2018-12-15T11:48:43.215Z,4.20
2018-12-15T11:51:11.013Z,4.20
2018-12-15T11:53:38.897Z,4.20
2018-12-15T12:01:08.223Z,4.20
2018-12-15T12:03:36.038Z,4.10
2018-12-15T12:06:03.691Z,4.10
2018-12-15T12:08:31.345Z,4.10
2018-12-15T12:10:58.922Z,4.10
2018-12-15T12:13:26.514Z,4.10
2018-12-15T12:15:54.155Z,4.20
2018-12-15T12:18:21.750Z,4.10
2018-12-15T12:20:49.667Z,4.10
2018-12-15T12:23:17.392Z,4.00
2018-12-15T12:25:47.985Z,4.10
2018-12-15T12:28:15.895Z,4.10
2018-12-15T12:30:43.541Z,4.20
2018-12-15T12:33:11.218Z,4.20
2018-12-15T12:35:38.823Z,4.20
2018-12-15T12:38:06.545Z,3.60
2018-12-15T12:40:34.241Z,4.10
2018-12-15T12:43:02.149Z,4.00
2018-12-15T12:45:30.171Z,4.00
2018-12-15T12:47:58.083Z,2.70
2018-12-15T12:50:26.463Z,4.70
2018-12-15T12:52:54.554Z,3.90
2018-12-15T12:55:22.398Z,3.90
2018-12-15T12:57:51.295Z,3.80
2018-12-15T13:00:19.299Z,3.70
2018-12-15T13:02:47.351Z,3.70
2018-12-15T13:05:15.037Z,2.40
2018-12-15T13:07:42.921Z,4.20
2018-12-15T13:10:10.770Z,3.70
2018-12-15T13:12:38.358Z,3.60
2018-12-15T13:15:06.142Z,3.60
2018-12-15T13:17:33.747Z,3.50
2018-12-15T13:20:03.756Z,3.50
2018-12-15T13:22:31.288Z,3.60
2018-12-15T13:24:58.907Z,3.60
2018-12-15T13:27:26.574Z,3.50
2018-12-15T13:29:54.170Z,3.50
2018-12-15T13:32:21.829Z,3.40
2018-12-15T13:34:49.487Z,3.40
2018-12-15T13:37:17.269Z,3.40
2018-12-15T13:39:44.953Z,3.30
2018-12-15T13:42:12.897Z,3.40
2018-12-15T13:44:40.703Z,3.30
2018-12-15T13:47:08.371Z,3.30
2018-12-15T13:49:35.889Z,3.20
2018-12-15T13:52:03.533Z,3.20
2018-12-15T13:54:31.087Z,2.90
2018-12-15T13:56:58.650Z,3.10
2018-12-15T13:59:26.306Z,3.10
2018-12-15T14:01:53.945Z,3.10
2018-12-15T14:04:21.865Z,3.00
2018-12-15T14:06:49.658Z,3.10
2018-12-15T14:09:17.208Z,3.00
2018-12-15T14:11:44.818Z,3.00
2018-12-15T14:14:12.465Z,3.00
2018-12-15T14:16:40.026Z,2.90
2018-12-15T14:19:07.801Z,2.90
2018-12-15T14:21:35.636Z,2.90
2018-12-15T14:29:07.135Z,2.90
2018-12-15T14:31:35.125Z,2.90
2018-12-15T14:34:03.049Z,2.90
2018-12-15T14:36:31.017Z,2.80
2018-12-15T14:38:58.745Z,2.70
2018-12-15T14:41:26.469Z,2.70
2018-12-15T14:43:54.256Z,2.70
2018-12-15T14:46:21.802Z,2.60
2018-12-15T14:48:49.465Z,2.70
2018-12-15T14:51:17.003Z,2.70
2018-12-15T14:53:44.676Z,2.60
2018-12-15T14:56:12.491Z,2.60
2018-12-15T14:58:40.298Z,2.60
2018-12-15T15:01:08.154Z,2.60
2018-12-15T15:03:36.031Z,2.60
2018-12-15T15:06:04.222Z,2.60
2018-12-15T15:08:31.886Z,2.60
2018-12-15T15:10:59.618Z,2.60
2018-12-15T15:13:27.282Z,2.60
2018-12-15T15:15:55.044Z,2.60
2018-12-15T15:18:22.633Z,2.60
2018-12-15T15:20:50.250Z,2.60
2018-12-15T15:23:18.146Z,2.60
2018-12-15T15:25:45.944Z,2.50
2018-12-15T15:28:13.847Z,2.50
2018-12-15T15:30:41.591Z,2.60
2018-12-15T15:33:09.479Z,2.50
2018-12-15T15:35:37.206Z,2.50
2018-12-15T15:38:05.086Z,2.50
2018-12-15T15:40:33.046Z,2.40
2018-12-15T15:43:00.915Z,2.40
2018-12-15T15:45:28.598Z,2.40
2018-12-15T15:47:56.241Z,2.30
2018-12-15T15:50:23.903Z,2.40
2018-12-15T15:52:51.519Z,2.40
2018-12-15T15:55:19.155Z,2.40
2018-12-15T15:57:46.871Z,2.30
2018-12-15T16:00:14.615Z,2.30
2018-12-15T16:02:42.470Z,2.40
2018-12-15T16:05:11.809Z,2.30
2018-12-15T16:07:39.663Z,2.30
2018-12-15T16:10:09.609Z,2.30
2018-12-15T16:12:37.376Z,2.30
2018-12-15T16:15:06.245Z,2.30
2018-12-15T16:17:34.341Z,2.30
2018-12-15T16:20:01.939Z,2.60
2018-12-15T16:22:29.773Z,2.30
2018-12-15T16:24:57.528Z,2.20
2018-12-15T16:27:25.287Z,2.30
2018-12-15T16:29:53.306Z,2.30
2018-12-15T16:32:21.474Z,2.30
2018-12-15T16:34:49.230Z,2.30
2018-12-15T16:37:16.897Z,2.30
2018-12-15T16:39:44.561Z,2.20
2018-12-15T16:42:12.122Z,2.20
2018-12-15T16:44:39.795Z,2.20
2018-12-15T16:47:07.722Z,2.20
2018-12-15T16:49:35.459Z,2.20
2018-12-15T16:52:03.120Z,2.20
2018-12-15T16:54:30.863Z,2.20
2018-12-15T16:56:58.496Z,2.20
2018-12-15T16:59:26.439Z,2.20
2018-12-15T17:01:54.020Z,2.20
2018-12-15T17:04:21.614Z,2.20
2018-12-15T17:06:49.319Z,2.20
2018-12-15T17:09:17.024Z,2.20
2018-12-15T17:11:44.821Z,2.20
2018-12-15T17:14:12.737Z,2.20
2018-12-15T17:16:40.581Z,2.20
2018-12-15T17:19:08.598Z,2.20
2018-12-15T17:21:36.446Z,2.20
2018-12-15T17:24:04.122Z,2.20
2018-12-15T17:26:31.808Z,2.20
2018-12-15T17:28:59.532Z,2.20
2018-12-15T17:31:27.116Z,2.30
2018-12-15T17:33:54.677Z,2.30
2018-12-15T17:36:22.374Z,2.20
2018-12-15T17:38:51.055Z,2.30
2018-12-15T17:41:18.854Z,2.20
2018-12-15T17:43:46.653Z,2.20
2018-12-15T17:46:14.306Z,2.20
2018-12-15T17:48:42.018Z,2.20
2018-12-15T17:51:09.590Z,2.20
2018-12-15T17:53:37.197Z,2.20
2018-12-15T17:56:04.793Z,2.20
2018-12-15T17:58:32.400Z,2.20
2018-12-15T18:01:00.126Z,2.20
2018-12-15T18:03:27.969Z,2.20
2018-12-15T18:05:55.790Z,2.20
2018-12-15T18:08:23.582Z,2.20
2018-12-15T18:10:51.485Z,2.20
2018-12-15T18:13:19.097Z,2.20
2018-12-15T18:15:46.674Z,2.20
2018-12-15T18:18:14.234Z,2.20
2018-12-15T18:20:41.826Z,2.20
2018-12-15T18:23:09.625Z,2.00
2018-12-15T18:25:37.442Z,2.20
2018-12-15T18:28:05.257Z,2.20
2018-12-15T18:30:33.123Z,2.20
2018-12-15T18:33:00.703Z,2.30
2018-12-15T18:35:28.278Z,2.20
2018-12-15T18:37:55.831Z,2.20
2018-12-15T18:40:23.435Z,2.20
2018-12-15T18:42:51.343Z,2.80
2018-12-15T18:45:19.136Z,2.30
2018-12-15T18:47:46.897Z,2.30
2018-12-15T18:50:14.691Z,2.30
2018-12-15T18:52:42.267Z,2.30
2018-12-15T18:55:09.850Z,2.30
2018-12-15T18:57:37.388Z,2.30
2018-12-15T19:00:06.322Z,2.30
2018-12-15T19:02:34.146Z,2.30
2018-12-15T19:05:01.718Z,2.30
2018-12-15T19:07:29.557Z,2.30
2018-12-15T19:09:57.246Z,2.30
2018-12-15T19:12:25.025Z,2.30
2018-12-15T19:14:52.811Z,2.40
2018-12-15T19:17:20.438Z,2.30
2018-12-15T19:19:48.057Z,2.30
2018-12-15T19:22:15.619Z,2.30
2018-12-15T19:24:43.195Z,2.30
2018-12-15T19:27:11.034Z,2.30
2018-12-15T19:29:38.850Z,2.40
2018-12-15T19:32:06.638Z,2.30
2018-12-15T19:34:34.390Z,2.40
2018-12-15T19:37:01.962Z,2.40
2018-12-15T19:39:29.571Z,2.30
2018-12-15T19:41:57.229Z,2.30
2018-12-15T19:44:24.797Z,2.40
2018-12-15T19:46:52.765Z,2.40
2018-12-15T19:49:20.694Z,2.40
2018-12-15T19:51:48.386Z,2.40
2018-12-15T19:54:16.219Z,2.40
2018-12-15T19:56:43.871Z,2.40
2018-12-15T19:59:13.802Z,2.40
2018-12-15T20:01:42.587Z,2.40
2018-12-15T20:04:10.677Z,2.40
2018-12-15T20:06:38.434Z,2.30
2018-12-15T20:09:08.578Z,2.40
2018-12-15T20:11:36.270Z,2.40
2018-12-15T20:14:04.018Z,2.40
2018-12-15T20:16:31.920Z,2.30
2018-12-15T20:18:59.753Z,2.40
2018-12-15T20:21:27.446Z,2.40
2018-12-15T20:23:55.139Z,2.40
2018-12-15T20:26:22.690Z,2.40
2018-12-15T20:28:50.290Z,2.50
2018-12-15T20:31:17.826Z,2.40
2018-12-15T20:33:45.498Z,2.50
2018-12-15T20:36:13.258Z,2.40
2018-12-15T20:38:41.161Z,2.50
2018-12-15T20:41:08.952Z,2.40
2018-12-15T20:43:36.661Z,2.40
2018-12-15T20:46:04.224Z,2.50
2018-12-15T20:48:31.813Z,2.50
2018-12-15T20:50:59.374Z,2.50
2018-12-15T20:53:27.094Z,2.50
2018-12-15T20:55:54.877Z,2.50
2018-12-15T20:58:22.542Z,2.50
2018-12-15T21:00:50.337Z,2.50
2018-12-15T21:03:17.885Z,2.50
2018-12-15T21:05:45.470Z,2.50
2018-12-15T21:08:13.064Z,2.50
2018-12-15T21:10:40.648Z,2.50
2018-12-15T21:13:08.457Z,2.50
2018-12-15T21:15:40.397Z,2.50
2018-12-15T21:18:07.983Z,2.50
2018-12-15T21:20:35.531Z,2.50
2018-12-15T21:23:03.102Z,2.50
2018-12-15T21:25:30.980Z,2.50
2018-12-15T21:27:58.921Z,2.50
2018-12-15T21:30:26.651Z,2.50
2018-12-15T21:32:54.495Z,2.50
2018-12-15T21:35:22.317Z,2.50
2018-12-15T21:37:49.885Z,2.50
2018-12-15T21:40:17.429Z,2.50
2018-12-15T21:42:45.012Z,2.40
2018-12-15T21:45:12.727Z,2.40
2018-12-15T21:47:41.796Z,2.40
2018-12-15T21:50:09.907Z,2.30
2018-12-15T21:52:37.666Z,2.30
2018-12-15T21:55:05.353Z,2.30
2018-12-15T21:57:33.139Z,2.30
2018-12-15T22:00:00.715Z,2.30
2018-12-15T22:02:28.468Z,2.20
2018-12-15T22:04:56.161Z,2.10
2018-12-15T22:07:23.770Z,2.10
2018-12-15T22:09:51.591Z,2.10
2018-12-15T22:12:19.497Z,2.10
2018-12-15T22:14:47.278Z,2.00
2018-12-15T22:17:15.122Z,2.00
2018-12-15T22:19:42.689Z,2.00
2018-12-15T22:22:10.255Z,2.00
2018-12-15T22:24:37.895Z,2.00
2018-12-15T22:27:05.485Z,2.00
2018-12-15T22:29:33.293Z,1.90
2018-12-15T22:32:01.194Z,1.90
2018-12-15T22:34:29.102Z,1.90
2018-12-15T22:36:56.921Z,1.90
2018-12-15T22:39:24.728Z,1.80
2018-12-15T22:41:52.281Z,1.80
2018-12-15T22:44:19.885Z,1.80
2018-12-15T22:46:47.482Z,1.80
2018-12-15T22:49:15.062Z,1.80
2018-12-15T22:51:42.859Z,1.80
2018-12-15T22:54:10.676Z,1.80
2018-12-15T22:56:39.608Z,1.70
2018-12-15T22:59:07.558Z,1.80
2018-12-15T23:01:48.197Z,1.80
2018-12-15T23:04:15.793Z,1.80
2018-12-15T23:06:43.450Z,1.70
2018-12-15T23:09:11.443Z,1.80
2018-12-15T23:11:39.370Z,1.80
2018-12-15T23:14:06.974Z,1.80
2018-12-15T23:16:34.706Z,1.80
2018-12-15T23:19:02.641Z,1.80
2018-12-15T23:21:30.181Z,1.80
2018-12-15T23:23:57.718Z,1.80
2018-12-15T23:26:25.285Z,1.80
2018-12-15T23:28:52.866Z,1.80
2018-12-15T23:31:20.741Z,1.40
2018-12-15T23:33:48.703Z,1.80
2018-12-15T23:36:16.550Z,1.80
2018-12-15T23:38:44.259Z,1.90
2018-12-15T23:41:11.922Z,1.90
2018-12-15T23:43:39.503Z,1.90
2018-12-15T23:46:07.058Z,1.90
2018-12-15T23:48:34.777Z,1.90
2018-12-15T23:51:02.655Z,2.00
2018-12-15T23:53:30.499Z,2.00
2018-12-15T23:55:58.201Z,2.00
2018-12-15T23:58:25.897Z,2.00
